Airfield :
LOGIN :

Register | Disclaimer

   EN    FR    IT 

 










Legend :    VFR   Marginal VFR   IFR   Intensive IFR   Very Intensive IFR
Visi :
Ceiling :
>= 8 km
>= 3000ft
5 to 8 km
1000 to 3000 ft
1500m to 5 km
500 to 1000 ft
800 to 1500m
200 to 500 ft
< 800m
< 200 ft
Symbols :   Thunderstorms  Fog  Heavy snow  Heavy precipitations  Wind > 20 kt
SIGMETs :     Misc.  Thunderstorms  Icing  Turbulence  Mountain Waves  Volcanic Ashes







- Airport Elevation : 1115 ft
- IATA code : GRZ


LOWG - Graz

CURRENT METAR :
  • 190920Z VRB02KT 3400 -SN BR SCT006 BKN010 01/M00 Q1015 NOSIG

EXPIRED METARs :
  • 190850Z VRB02KT 2000 R17/P1500U R35/P1500U -SN BR BKN006 BKN008 00/M00 Q1014 NOSIG
  • 190820Z VRB01KT 1400 R17/P1500D R35/P1500U -SN BR BKN005 BKN008 00/M00 Q1014 TEMPO 1800 SCT005 BKN008
  • 190750Z 03002KT 1800 -SN BR SCT005 BKN008 00/M00 Q1014 TEMPO 1200 SN BKN005 OVC007
  • 190720Z 05003KT 2200 -SN BR FEW005 BKN008 00/M00 Q1014 NOSIG

TAF AMD TAF LOWG
Valid from the 19 at 08:00 until the 20 at 06:00 UTC


190819Z 1908/2006 07003KT 5000 BR SCT010 BKN025 TX02/2006Z TN00/1908Z
TEMPO 1908/2006 1400 -SN BR BKN005 BKN008
TEMPO 2000/2006 0800 SN VV005
No reported NOTAMs for that airfield.
1 SIGMET reported for the Wien FIR (LOVV) :
 
Severe icing
LOVV SIGMET 2 VALID 190630/191030 LOWW
LOVV WIEN FIR SEV ICE FCST SE OF LINE N4620 E01410 - N4825 E01700 3000/7000FT STNR WKN=



MET'MAP, your aeronautical weather chart ! - Copyright ORBIFLY December 2007 - Disclaimer

ORBIFLY MET'MAP TEAM :

Programming & Development : Alexandra Zaïnal
Concept & Development : Baudouin d'Aumeries
Co-Development & Prog : Marc-Olivier Méhu
Technical & hardware support : Manuel Goepfert

Contact : metmap@orbifly.com




SOURCES & CREDITS :

   NOAA